createdAt,value
2017-06-20T00:02:00.066Z,13.93
2017-06-20T00:04:26.748Z,14.93
2017-06-20T00:06:53.533Z,15.57
2017-06-20T00:09:20.208Z,14.77
2017-06-20T00:11:46.893Z,15.98
2017-06-20T00:14:13.580Z,14.70
2017-06-20T00:16:40.265Z,15.15
2017-06-20T00:19:06.952Z,14.93
2017-06-20T00:21:33.640Z,15.10
2017-06-20T00:24:00.368Z,15.82
2017-06-20T00:26:27.062Z,16.15
2017-06-20T00:28:53.780Z,14.98
2017-06-20T00:31:20.473Z,14.57
2017-06-20T00:33:47.153Z,16.25
2017-06-20T00:36:13.840Z,15.30
2017-06-20T00:38:40.526Z,15.57
2017-06-20T00:41:07.204Z,15.85
2017-06-20T00:43:33.888Z,16.15
2017-06-20T00:46:00.593Z,15.60
2017-06-20T00:48:27.499Z,15.80
2017-06-20T00:50:54.208Z,15.43
2017-06-20T00:53:20.890Z,14.70
2017-06-20T00:55:47.573Z,15.23
2017-06-20T00:58:14.248Z,16.35
2017-06-20T01:00:40.944Z,15.60
2017-06-20T01:03:07.628Z,15.77
2017-06-20T01:05:34.309Z,15.95
2017-06-20T01:08:00.985Z,15.35
2017-06-20T01:10:27.684Z,15.70
2017-06-20T01:12:54.381Z,15.57
2017-06-20T01:15:21.060Z,15.63
2017-06-20T01:17:47.769Z,16.35
2017-06-20T01:20:14.449Z,15.82
2017-06-20T01:22:41.159Z,17.67
2017-06-20T01:25:07.861Z,15.77
2017-06-20T01:27:34.584Z,18.17
2017-06-20T01:30:01.263Z,18.17
2017-06-20T01:32:27.960Z,18.55
2017-06-20T01:34:54.645Z,18.48
2017-06-20T01:37:21.339Z,17.23
2017-06-20T01:39:48.020Z,18.30
2017-06-20T01:42:14.692Z,18.83
2017-06-20T01:44:41.364Z,18.60
2017-06-20T01:47:08.053Z,18.62
2017-06-20T01:49:34.759Z,17.83
2017-06-20T01:52:01.433Z,18.77
2017-06-20T01:54:28.137Z,19.80
2017-06-20T01:56:54.821Z,18.98
2017-06-20T01:59:21.505Z,19.30
2017-06-20T02:01:48.189Z,19.55
2017-06-20T02:04:14.873Z,19.80
2017-06-20T02:06:41.553Z,18.48
2017-06-20T02:09:08.244Z,21.48
2017-06-20T02:11:34.921Z,19.70
2017-06-20T02:14:01.601Z,19.90
2017-06-20T02:16:28.308Z,19.33
2017-06-20T02:18:54.994Z,17.92
2017-06-20T02:21:21.673Z,19.37
2017-06-20T02:23:48.358Z,19.25
2017-06-20T02:26:15.049Z,19.42
2017-06-20T02:28:41.736Z,21.35
2017-06-20T02:31:08.411Z,20.25
2017-06-20T02:33:35.085Z,18.85
2017-06-20T02:36:01.765Z,18.87
2017-06-20T02:38:28.445Z,18.83
2017-06-20T02:40:55.121Z,19.48
2017-06-20T02:43:21.808Z,19.35
2017-06-20T02:45:48.497Z,20.15
2017-06-20T02:48:15.214Z,18.58
2017-06-20T02:50:41.895Z,19.55
2017-06-20T02:53:08.572Z,18.65
2017-06-20T02:55:35.254Z,19.98
2017-06-20T02:58:01.936Z,19.98
2017-06-20T03:00:28.619Z,19.80
2017-06-20T03:02:55.309Z,18.65
2017-06-20T03:05:21.985Z,18.52
2017-06-20T03:07:48.672Z,18.90
2017-06-20T03:10:15.351Z,17.30
2017-06-20T03:12:42.028Z,19.40
2017-06-20T03:15:08.737Z,20.00
2017-06-20T03:17:35.413Z,20.33
2017-06-20T03:20:02.110Z,19.33
2017-06-20T03:22:28.793Z,18.83
2017-06-20T03:24:55.696Z,20.52
2017-06-20T03:27:22.377Z,18.67
2017-06-20T03:29:49.056Z,19.17
2017-06-20T03:32:15.737Z,20.27
2017-06-20T03:34:42.413Z,19.35
2017-06-20T03:37:09.226Z,19.60
2017-06-20T03:39:35.910Z,20.85
2017-06-20T03:42:03.350Z,22.30
2017-06-20T03:44:30.162Z,21.55
2017-06-20T03:46:56.844Z,20.27
2017-06-20T03:49:23.536Z,21.23
2017-06-20T03:51:50.213Z,21.50
2017-06-20T03:54:16.897Z,17.60
2017-06-20T03:56:43.585Z,18.85
2017-06-20T03:59:10.265Z,18.98
2017-06-20T04:01:36.953Z,17.65
2017-06-20T04:04:03.673Z,18.40
2017-06-20T04:06:30.352Z,18.48
2017-06-20T04:08:57.043Z,18.60
2017-06-20T04:11:23.728Z,16.92
2017-06-20T04:13:50.424Z,18.75
2017-06-20T04:16:17.341Z,19.95
2017-06-20T04:18:44.038Z,19.00
2017-06-20T04:21:16.544Z,17.67
2017-06-20T04:23:43.249Z,17.30
2017-06-20T04:26:09.969Z,19.45
2017-06-20T04:28:36.652Z,18.30
2017-06-20T04:31:03.345Z,19.40
2017-06-20T04:33:30.021Z,19.17
2017-06-20T04:35:56.697Z,17.97
2017-06-20T04:38:23.385Z,18.70
2017-06-20T04:40:50.073Z,17.40
2017-06-20T04:43:16.751Z,19.30
2017-06-20T04:45:43.425Z,17.80
2017-06-20T04:48:10.108Z,18.37
2017-06-20T04:50:36.797Z,19.07
2017-06-20T04:53:03.684Z,18.70
2017-06-20T04:55:30.385Z,17.90
2017-06-20T04:57:57.056Z,20.47
2017-06-20T05:00:23.759Z,22.23
2017-06-20T05:02:50.440Z,19.90
2017-06-20T05:05:17.142Z,19.00
2017-06-20T05:07:43.828Z,19.20
2017-06-20T05:10:10.525Z,18.33
2017-06-20T05:12:37.200Z,19.33
2017-06-20T05:15:03.877Z,18.20
2017-06-20T05:17:30.583Z,20.10
2017-06-20T05:19:57.262Z,18.57
2017-06-20T05:22:23.989Z,19.50
2017-06-20T05:24:50.664Z,18.67
2017-06-20T05:27:17.369Z,20.43
2017-06-20T05:29:44.043Z,20.70
2017-06-20T05:32:10.751Z,20.60
2017-06-20T05:34:37.425Z,20.27
2017-06-20T05:37:04.098Z,19.83
2017-06-20T05:39:30.781Z,20.67
2017-06-20T05:41:57.460Z,19.20
2017-06-20T05:44:24.161Z,17.77
2017-06-20T05:46:50.833Z,20.20
2017-06-20T05:49:17.544Z,19.30
2017-06-20T05:51:44.220Z,21.13
2017-06-20T05:54:10.923Z,19.87
2017-06-20T05:56:37.594Z,22.53
2017-06-20T05:59:04.314Z,20.70
2017-06-20T06:01:31.000Z,23.87
2017-06-20T06:03:57.677Z,19.80
2017-06-20T06:06:24.352Z,20.30
2017-06-20T06:08:51.040Z,18.80
2017-06-20T06:11:17.754Z,20.53
2017-06-20T06:13:44.431Z,20.47
2017-06-20T06:16:11.133Z,19.40
2017-06-20T06:18:37.805Z,18.53
2017-06-20T06:21:04.502Z,18.97
2017-06-20T06:23:31.180Z,18.60
2017-06-20T06:25:57.898Z,18.63
2017-06-20T06:28:24.573Z,18.60
2017-06-20T06:30:51.252Z,19.07
2017-06-20T06:33:17.929Z,20.77
2017-06-20T06:35:44.605Z,19.83
2017-06-20T06:38:11.304Z,22.17
2017-06-20T06:40:37.974Z,20.77
2017-06-20T06:43:04.673Z,21.80
2017-06-20T06:45:31.352Z,19.63
2017-06-20T06:47:58.060Z,18.70
2017-06-20T06:50:24.737Z,19.13
2017-06-20T06:52:51.421Z,17.57
2017-06-20T06:55:18.106Z,18.97
2017-06-20T06:57:44.788Z,19.50
2017-06-20T07:00:11.497Z,18.93
2017-06-20T07:02:38.182Z,17.40
2017-06-20T07:05:04.885Z,17.80
2017-06-20T07:07:31.586Z,16.43
2017-06-20T07:09:58.292Z,16.57
2017-06-20T07:12:24.965Z,15.77
2017-06-20T07:14:51.646Z,14.90
2017-06-20T07:17:18.338Z,13.27
2017-06-20T07:19:45.018Z,12.67
2017-06-20T07:22:11.688Z,12.83
2017-06-20T07:24:38.372Z,12.93
2017-06-20T07:27:05.070Z,13.10
2017-06-20T07:29:31.745Z,13.20
2017-06-20T07:31:58.469Z,12.67
2017-06-20T07:34:25.146Z,14.07
2017-06-20T07:36:51.825Z,12.80
2017-06-20T07:39:18.508Z,13.17
2017-06-20T07:41:45.189Z,12.07
2017-06-20T07:44:11.874Z,13.23
2017-06-20T07:46:38.558Z,13.93
2017-06-20T07:49:05.242Z,12.00
2017-06-20T07:51:31.947Z,12.53
2017-06-20T07:53:58.648Z,11.70
2017-06-20T07:56:25.321Z,15.40
2017-06-20T07:58:52.016Z,12.90
2017-06-20T08:01:18.688Z,12.43
2017-06-20T08:03:45.413Z,12.70
2017-06-20T08:06:12.129Z,12.23
2017-06-20T08:08:38.801Z,11.50
2017-06-20T08:11:05.477Z,11.33
2017-06-20T08:13:32.160Z,10.13
2017-06-20T08:15:58.843Z,11.93
2017-06-20T08:18:25.532Z,12.90
2017-06-20T08:20:52.221Z,11.53
2017-06-20T08:23:18.902Z,11.50
2017-06-20T08:25:45.574Z,9.87
2017-06-20T08:28:12.250Z,10.87
2017-06-20T08:30:38.969Z,9.03
2017-06-20T08:33:05.659Z,10.80
2017-06-20T08:35:32.337Z,9.37
2017-06-20T08:37:59.021Z,9.60
2017-06-20T08:40:25.693Z,9.50
2017-06-20T08:42:52.602Z,9.83
2017-06-20T08:45:19.273Z,9.67
2017-06-20T08:47:45.950Z,10.00
2017-06-20T08:50:12.638Z,9.73
2017-06-20T08:52:39.360Z,11.07
2017-06-20T08:55:06.032Z,9.23
2017-06-20T08:57:32.935Z,9.80
2017-06-20T08:59:59.606Z,9.40
2017-06-20T09:02:26.281Z,8.63
2017-06-20T09:04:52.952Z,9.13
2017-06-20T09:07:19.625Z,10.60
2017-06-20T09:09:46.292Z,9.83
2017-06-20T09:12:12.971Z,11.63
2017-06-20T09:14:39.649Z,10.80
2017-06-20T09:17:06.326Z,10.47
2017-06-20T09:19:33.000Z,10.13
2017-06-20T09:21:59.690Z,10.47
2017-06-20T09:24:26.389Z,10.80
2017-06-20T09:26:53.057Z,9.93
2017-06-20T09:29:19.752Z,9.60
2017-06-20T09:31:46.441Z,10.37
2017-06-20T09:34:13.112Z,9.43
2017-06-20T09:36:39.780Z,9.43
2017-06-20T09:39:06.449Z,9.97
2017-06-20T09:41:33.144Z,11.67
2017-06-20T09:43:59.835Z,9.40
2017-06-20T09:46:26.509Z,9.00
2017-06-20T09:48:53.174Z,9.43
2017-06-20T09:51:19.847Z,10.00
2017-06-20T09:53:46.525Z,10.20
2017-06-20T09:56:13.202Z,9.70
2017-06-20T09:58:39.888Z,8.90
2017-06-20T10:01:06.564Z,7.60
2017-06-20T10:03:33.237Z,7.00
2017-06-20T10:05:59.925Z,8.07
2017-06-20T10:08:26.600Z,7.60
2017-06-20T10:10:53.270Z,7.23
2017-06-20T10:13:19.968Z,8.13
2017-06-20T10:15:46.647Z,8.10
2017-06-20T10:18:13.354Z,7.80
2017-06-20T10:20:40.025Z,8.20
2017-06-20T10:23:06.693Z,8.87
2017-06-20T10:25:33.393Z,7.83
2017-06-20T10:28:00.061Z,8.77
2017-06-20T10:30:26.758Z,7.70
2017-06-20T10:32:53.436Z,8.37
2017-06-20T10:35:20.137Z,8.80
2017-06-20T10:37:46.809Z,9.13
2017-06-20T10:40:13.507Z,9.50
2017-06-20T10:42:40.180Z,8.90
2017-06-20T10:45:06.862Z,8.40
2017-06-20T10:47:33.529Z,8.50
2017-06-20T10:50:00.207Z,9.70
2017-06-20T10:52:26.910Z,10.10
2017-06-20T10:54:53.579Z,9.50
2017-06-20T10:57:20.285Z,9.10
2017-06-20T10:59:46.961Z,9.67
2017-06-20T11:02:13.655Z,8.13
2017-06-20T11:04:40.333Z,9.40
2017-06-20T11:07:07.004Z,9.43
2017-06-20T11:09:33.694Z,10.20
2017-06-20T11:12:00.372Z,9.53
2017-06-20T11:14:27.061Z,8.90
2017-06-20T11:16:53.737Z,10.17
2017-06-20T11:19:20.437Z,9.67
2017-06-20T11:21:47.119Z,10.50
2017-06-20T11:24:13.816Z,8.83
2017-06-20T11:26:40.488Z,8.90
2017-06-20T11:29:07.176Z,8.60
2017-06-20T11:31:33.861Z,9.67
2017-06-20T11:34:00.553Z,9.47
2017-06-20T11:36:27.220Z,8.70
2017-06-20T11:38:54.683Z,8.50
2017-06-20T11:41:21.348Z,8.63
2017-06-20T11:43:48.016Z,8.27
2017-06-20T11:46:14.701Z,7.83
2017-06-20T11:48:41.365Z,8.37
2017-06-20T11:51:08.053Z,6.80
2017-06-20T11:53:34.717Z,8.00
2017-06-20T11:56:01.406Z,7.47
2017-06-20T11:58:28.074Z,7.20
2017-06-20T12:00:54.746Z,7.07
2017-06-20T12:03:21.410Z,7.87
2017-06-20T12:05:48.077Z,7.07
2017-06-20T12:08:14.753Z,7.03
2017-06-20T12:10:41.425Z,6.07
2017-06-20T12:13:08.089Z,6.17
2017-06-20T12:15:34.772Z,7.10
2017-06-20T12:18:01.469Z,6.40
2017-06-20T12:20:28.145Z,6.80
2017-06-20T12:22:54.810Z,6.77
2017-06-20T12:25:21.481Z,6.00
2017-06-20T12:27:48.142Z,5.77
2017-06-20T12:30:14.808Z,5.43
2017-06-20T12:32:41.481Z,6.13
2017-06-20T12:35:08.166Z,6.07
2017-06-20T12:37:34.833Z,6.07
2017-06-20T12:40:01.526Z,5.70
2017-06-20T12:42:28.482Z,5.40
2017-06-20T12:44:55.170Z,5.83
2017-06-20T12:47:21.832Z,5.50
2017-06-20T12:49:48.536Z,5.20
2017-06-20T12:52:15.202Z,5.30
2017-06-20T12:54:41.871Z,5.23
2017-06-20T12:57:08.540Z,5.63
2017-06-20T12:59:35.212Z,5.60
2017-06-20T13:02:01.882Z,5.93
2017-06-20T13:04:28.553Z,6.07
2017-06-20T13:06:55.236Z,6.60
2017-06-20T13:09:21.896Z,6.27
2017-06-20T13:11:48.587Z,6.77
2017-06-20T13:14:15.257Z,6.23
2017-06-20T13:16:41.949Z,6.57
2017-06-20T13:19:08.651Z,6.03
2017-06-20T13:21:35.325Z,6.33
2017-06-20T13:24:01.995Z,6.40
2017-06-20T13:26:28.661Z,6.00
2017-06-20T13:28:55.328Z,7.47
2017-06-20T13:31:21.996Z,7.13
2017-06-20T13:33:48.664Z,6.53
2017-06-20T13:36:15.332Z,7.77
2017-06-20T13:38:42.022Z,6.73
2017-06-20T13:41:08.680Z,8.83
2017-06-20T13:43:35.364Z,6.67
2017-06-20T13:46:02.025Z,6.57
2017-06-20T13:48:28.732Z,7.20
2017-06-20T13:50:55.401Z,6.43
2017-06-20T13:53:22.081Z,6.90
2017-06-20T13:55:48.759Z,7.17
2017-06-20T13:58:15.420Z,7.70
2017-06-20T14:00:42.093Z,6.90
2017-06-20T14:03:08.766Z,6.47
2017-06-20T14:05:35.437Z,7.17
2017-06-20T14:08:02.104Z,6.97
2017-06-20T14:10:28.787Z,7.00
2017-06-20T14:12:55.450Z,7.03
2017-06-20T14:15:22.121Z,5.93
2017-06-20T14:17:48.781Z,6.17
2017-06-20T14:20:15.442Z,6.47
2017-06-20T14:22:42.103Z,5.27
2017-06-20T14:25:08.792Z,6.20
2017-06-20T14:27:35.457Z,5.60
2017-06-20T14:30:02.165Z,6.03
2017-06-20T14:32:28.828Z,6.33
2017-06-20T14:34:55.494Z,5.70
2017-06-20T14:37:22.157Z,5.53
2017-06-20T14:39:48.829Z,5.50
2017-06-20T14:42:15.499Z,5.80
2017-06-20T14:44:42.164Z,5.77
2017-06-20T14:47:08.828Z,4.93
2017-06-20T14:49:35.514Z,6.17
2017-06-20T14:52:02.208Z,5.40
2017-06-20T14:54:28.876Z,4.60
2017-06-20T14:56:55.552Z,4.80
2017-06-20T14:59:22.232Z,5.93
2017-06-20T15:01:48.900Z,5.57
2017-06-20T15:04:15.572Z,6.13
2017-06-20T15:06:42.238Z,6.27
2017-06-20T15:09:08.911Z,5.97
2017-06-20T15:11:35.578Z,6.80
2017-06-20T15:14:02.248Z,6.63
2017-06-20T15:16:28.932Z,10.60
2017-06-20T15:18:55.593Z,6.70
2017-06-20T15:21:22.264Z,6.00
2017-06-20T15:23:48.962Z,6.30
2017-06-20T15:26:15.624Z,6.13
2017-06-20T15:28:42.281Z,5.90
2017-06-20T15:31:08.947Z,5.30
2017-06-20T15:33:35.616Z,5.63
2017-06-20T15:36:02.278Z,7.07
2017-06-20T15:38:28.940Z,5.10
2017-06-20T15:40:55.608Z,6.50
2017-06-20T15:43:22.276Z,5.63
2017-06-20T15:45:48.946Z,5.80
2017-06-20T15:48:15.615Z,5.10
2017-06-20T15:50:42.281Z,5.30
2017-06-20T15:53:08.948Z,4.70
2017-06-20T15:55:35.611Z,5.10
2017-06-20T15:58:02.282Z,5.27
2017-06-20T16:00:29.002Z,6.87
2017-06-20T16:02:55.664Z,5.00
2017-06-20T16:05:22.338Z,4.33
2017-06-20T16:07:49.004Z,5.30
2017-06-20T16:10:15.664Z,4.10
2017-06-20T16:12:42.332Z,7.17
2017-06-20T16:15:09.001Z,4.77
2017-06-20T16:17:35.697Z,6.00
2017-06-20T16:20:02.368Z,4.70
2017-06-20T16:22:29.032Z,4.47
2017-06-20T16:24:55.700Z,5.83
2017-06-20T16:27:22.388Z,4.50
2017-06-20T16:29:49.068Z,6.13
2017-06-20T16:32:15.761Z,4.40
2017-06-20T16:34:42.429Z,4.37
2017-06-20T16:37:09.137Z,5.33
2017-06-20T16:39:35.801Z,4.33
2017-06-20T16:42:02.468Z,3.90
2017-06-20T16:44:29.135Z,5.67
2017-06-20T16:46:55.816Z,4.07
2017-06-20T16:49:22.476Z,3.97
2017-06-20T16:51:49.140Z,5.73
2017-06-20T16:54:15.805Z,4.10
2017-06-20T16:56:42.465Z,3.63
2017-06-20T16:59:09.126Z,4.83
2017-06-20T17:01:35.801Z,5.23
2017-06-20T17:04:02.494Z,4.67
2017-06-20T17:06:29.171Z,4.53
2017-06-20T17:08:55.838Z,4.70
2017-06-20T17:11:22.508Z,4.27
2017-06-20T17:13:49.174Z,3.70
2017-06-20T17:16:15.832Z,3.93
2017-06-20T17:18:42.500Z,3.87
2017-06-20T17:21:09.173Z,3.90
2017-06-20T17:23:35.841Z,8.13
2017-06-20T17:26:02.510Z,4.43
2017-06-20T17:28:29.181Z,3.27
2017-06-20T17:30:55.848Z,3.83
2017-06-20T17:33:22.522Z,4.10
2017-06-20T17:35:49.187Z,3.47
2017-06-20T17:38:15.860Z,3.90
2017-06-20T17:40:42.531Z,3.57
2017-06-20T17:43:09.205Z,10.23
2017-06-20T17:45:35.896Z,3.87
2017-06-20T17:48:02.560Z,9.37
2017-06-20T17:50:29.233Z,3.23
2017-06-20T17:52:55.893Z,3.50
2017-06-20T17:55:22.556Z,3.30
2017-06-20T17:57:49.225Z,5.33
2017-06-20T18:00:15.896Z,4.00
2017-06-20T18:02:42.561Z,6.57
2017-06-20T18:05:09.225Z,3.90
2017-06-20T18:07:35.892Z,5.03
2017-06-20T18:10:02.553Z,3.80
2017-06-20T18:12:29.228Z,3.87
2017-06-20T18:14:55.904Z,5.57
2017-06-20T18:17:22.601Z,6.73
2017-06-20T18:19:49.265Z,3.57
2017-06-20T18:22:15.937Z,6.33
2017-06-20T18:24:42.607Z,4.50
2017-06-20T18:27:09.276Z,4.30
2017-06-20T18:29:35.942Z,5.20
2017-06-20T18:32:02.609Z,5.47
2017-06-20T18:34:29.269Z,3.70
2017-06-20T18:36:55.929Z,3.40
2017-06-20T18:39:22.592Z,4.13
2017-06-20T18:41:49.256Z,5.40
2017-06-20T18:44:15.940Z,5.00
2017-06-20T18:46:42.609Z,6.40
2017-06-20T18:49:09.305Z,4.37
2017-06-20T18:51:35.969Z,4.80
2017-06-20T18:54:02.632Z,3.23
2017-06-20T18:56:29.297Z,4.37
2017-06-20T18:58:55.982Z,5.13
2017-06-20T19:01:22.648Z,5.00
2017-06-20T19:03:49.318Z,4.93
2017-06-20T19:06:15.990Z,3.40
2017-06-20T19:08:42.663Z,5.90
2017-06-20T19:11:09.344Z,4.57
2017-06-20T19:13:36.014Z,5.17
2017-06-20T19:16:02.708Z,3.10
2017-06-20T19:18:29.381Z,5.23
2017-06-20T19:20:56.081Z,3.93
2017-06-20T19:23:22.744Z,4.90
2017-06-20T19:25:49.407Z,3.23
2017-06-20T19:28:16.065Z,6.77
2017-06-20T19:30:42.737Z,4.10
2017-06-20T19:33:09.408Z,5.00
2017-06-20T19:35:36.074Z,4.27
2017-06-20T19:38:02.746Z,5.27
2017-06-20T19:40:29.425Z,4.90
2017-06-20T19:42:56.096Z,4.87
2017-06-20T19:45:22.764Z,5.87
2017-06-20T19:47:49.428Z,2.67
2017-06-20T19:50:16.145Z,3.80
2017-06-20T19:52:42.829Z,2.87
2017-06-20T19:55:09.516Z,5.07
2017-06-20T19:57:36.216Z,3.40
2017-06-20T20:00:02.883Z,3.40
2017-06-20T20:02:29.608Z,3.40
2017-06-20T20:04:56.506Z,6.07
2017-06-20T20:10:05.742Z,3.22
2017-06-20T20:12:32.708Z,3.65
2017-06-20T20:14:59.396Z,4.12
2017-06-20T20:17:26.074Z,2.45
2017-06-20T20:19:52.775Z,6.62
2017-06-20T20:22:19.450Z,4.53
2017-06-20T20:24:46.116Z,3.30
2017-06-20T20:27:12.792Z,4.35
2017-06-20T20:29:39.465Z,3.10
2017-06-20T20:32:06.148Z,3.10
2017-06-20T20:34:32.869Z,4.75
2017-06-20T20:36:59.537Z,4.87
2017-06-20T20:39:26.209Z,2.80
2017-06-20T20:41:52.877Z,2.80
2017-06-20T20:44:19.548Z,5.32
2017-06-20T20:46:46.217Z,3.10
2017-06-20T20:49:12.885Z,3.85
2017-06-20T20:51:39.561Z,3.50
2017-06-20T20:54:06.229Z,3.35
2017-06-20T20:56:32.897Z,3.10
2017-06-20T20:58:59.565Z,4.12
2017-06-20T21:01:26.271Z,5.28
2017-06-20T21:03:52.932Z,6.15
2017-06-20T21:06:19.631Z,2.92
2017-06-20T21:08:46.300Z,4.15
2017-06-20T21:11:12.960Z,2.87
2017-06-20T21:13:39.636Z,3.05
2017-06-20T21:16:06.301Z,2.70
2017-06-20T21:18:32.968Z,3.15
2017-06-20T21:20:59.645Z,5.95
2017-06-20T21:23:26.306Z,3.37
2017-06-20T21:25:52.972Z,2.85
2017-06-20T21:28:19.652Z,3.22
2017-06-20T21:30:46.324Z,2.80
2017-06-20T21:33:13.028Z,5.12
2017-06-20T21:35:39.696Z,3.37
2017-06-20T21:38:06.373Z,5.20
2017-06-20T21:40:33.040Z,3.30
2017-06-20T21:42:59.705Z,4.82
2017-06-20T21:45:26.372Z,4.28
2017-06-20T21:47:53.049Z,5.30
2017-06-20T21:50:19.711Z,6.50
2017-06-20T21:52:46.381Z,3.67
2017-06-20T21:55:13.054Z,4.70
2017-06-20T21:57:39.720Z,4.60
2017-06-20T22:00:06.386Z,3.62
2017-06-20T22:02:33.713Z,5.78
2017-06-20T22:05:00.412Z,7.05
2017-06-20T22:07:27.078Z,5.07
2017-06-20T22:09:53.746Z,6.05
2017-06-20T22:12:20.418Z,5.18
2017-06-20T22:14:47.089Z,3.60
2017-06-20T22:17:13.752Z,3.72
2017-06-20T22:19:40.432Z,3.65
2017-06-20T22:22:07.104Z,8.05
2017-06-20T22:24:33.790Z,5.55
2017-06-20T22:27:00.465Z,3.50
2017-06-20T22:29:27.142Z,6.65
2017-06-20T22:31:53.852Z,5.22
2017-06-20T22:34:20.521Z,3.58
2017-06-20T22:36:47.225Z,3.67
2017-06-20T22:39:13.893Z,4.57
2017-06-20T22:41:40.573Z,5.65
2017-06-20T22:44:07.264Z,3.53
2017-06-20T22:46:33.933Z,4.20
2017-06-20T22:49:00.624Z,4.68
2017-06-20T22:51:27.293Z,6.65
2017-06-20T22:53:53.990Z,7.05
2017-06-20T22:56:20.657Z,3.90
2017-06-20T22:58:47.365Z,5.12
2017-06-20T23:01:14.038Z,6.05
2017-06-20T23:03:40.706Z,3.87
2017-06-20T23:06:07.372Z,6.40
2017-06-20T23:08:34.048Z,4.22
2017-06-20T23:11:00.740Z,7.82
2017-06-20T23:13:27.419Z,6.80
2017-06-20T23:15:54.120Z,10.60
2017-06-20T23:18:20.780Z,6.18
2017-06-20T23:20:47.473Z,4.37
2017-06-20T23:23:14.148Z,8.00
2017-06-20T23:25:40.847Z,7.25
2017-06-20T23:28:07.509Z,4.15
2017-06-20T23:30:34.196Z,4.40
2017-06-20T23:33:00.860Z,6.60
2017-06-20T23:35:27.561Z,5.47
2017-06-20T23:37:54.235Z,9.25
2017-06-20T23:40:20.925Z,6.75
2017-06-20T23:42:47.589Z,4.78
2017-06-20T23:45:14.272Z,7.87
2017-06-20T23:47:40.948Z,8.25
2017-06-20T23:50:07.620Z,6.07
2017-06-20T23:52:34.288Z,5.70
2017-06-20T23:55:00.961Z,19.90
2017-06-20T23:57:27.653Z,5.65
2017-06-20T23:59:54.324Z,8.10
